sensor_id;sensor_type;location;lat;lon;timestamp;P1;durP1;ratioP1;P2;durP2;ratioP2
11685;SDS011;5899;51.282;6.094;2023-03-01T00:00:28;6.95;;;6.25;;
11685;SDS011;5899;51.282;6.094;2023-03-01T00:02:57;7.20;;;6.50;;
11685;SDS011;5899;51.282;6.094;2023-03-01T00:05:59;7.88;;;6.85;;
11685;SDS011;5899;51.282;6.094;2023-03-01T00:08:35;7.60;;;6.70;;
11685;SDS011;5899;51.282;6.094;2023-03-01T00:11:13;7.95;;;6.38;;
11685;SDS011;5899;51.282;6.094;2023-03-01T00:13:43;7.40;;;6.70;;
11685;SDS011;5899;51.282;6.094;2023-03-01T00:16:17;10.23;;;6.80;;
11685;SDS011;5899;51.282;6.094;2023-03-01T00:18:57;7.18;;;6.47;;
11685;SDS011;5899;51.282;6.094;2023-03-01T00:21:50;7.25;;;6.55;;
11685;SDS011;5899;51.282;6.094;2023-03-01T00:24:18;7.28;;;6.50;;
11685;SDS011;5899;51.282;6.094;2023-03-01T00:30:04;7.75;;;6.45;;
11685;SDS011;5899;51.282;6.094;2023-03-01T00:35:52;7.13;;;6.20;;
11685;SDS011;5899;51.282;6.094;2023-03-01T00:38:41;7.68;;;6.88;;
11685;SDS011;5899;51.282;6.094;2023-03-01T00:41:22;8.48;;;7.13;;
11685;SDS011;5899;51.282;6.094;2023-03-01T00:43:56;8.32;;;6.70;;
11685;SDS011;5899;51.282;6.094;2023-03-01T00:46:28;7.78;;;6.97;;
11685;SDS011;5899;51.282;6.094;2023-03-01T00:49:17;7.95;;;6.65;;
11685;SDS011;5899;51.282;6.094;2023-03-01T00:51:55;9.47;;;7.40;;
11685;SDS011;5899;51.282;6.094;2023-03-01T00:54:23;9.65;;;7.38;;
11685;SDS011;5899;51.282;6.094;2023-03-01T00:57:10;9.32;;;7.97;;
11685;SDS011;5899;51.282;6.094;2023-03-01T00:59:46;9.07;;;8.07;;
11685;SDS011;5899;51.282;6.094;2023-03-01T01:05:34;8.68;;;7.28;;
11685;SDS011;5899;51.282;6.094;2023-03-01T01:08:11;10.20;;;7.57;;
11685;SDS011;5899;51.282;6.094;2023-03-01T01:11:18;8.00;;;7.15;;
11685;SDS011;5899;51.282;6.094;2023-03-01T01:13:50;9.63;;;7.63;;
11685;SDS011;5899;51.282;6.094;2023-03-01T01:16:33;7.90;;;7.10;;
11685;SDS011;5899;51.282;6.094;2023-03-01T01:19:06;8.00;;;6.95;;
11685;SDS011;5899;51.282;6.094;2023-03-01T01:27:42;8.18;;;7.15;;
11685;SDS011;5899;51.282;6.094;2023-03-01T01:33:43;9.40;;;6.72;;
11685;SDS011;5899;51.282;6.094;2023-03-01T01:36:12;9.02;;;7.15;;
11685;SDS011;5899;51.282;6.094;2023-03-01T01:38:47;8.55;;;7.25;;
11685;SDS011;5899;51.282;6.094;2023-03-01T01:41:17;9.43;;;7.70;;
11685;SDS011;5899;51.282;6.094;2023-03-01T01:49:25;8.30;;;7.50;;
11685;SDS011;5899;51.282;6.094;2023-03-01T01:52:27;8.30;;;7.27;;
11685;SDS011;5899;51.282;6.094;2023-03-01T01:55:06;8.43;;;7.40;;
11685;SDS011;5899;51.282;6.094;2023-03-01T01:57:53;8.88;;;8.07;;
11685;SDS011;5899;51.282;6.094;2023-03-01T02:00:25;9.75;;;7.20;;
11685;SDS011;5899;51.282;6.094;2023-03-01T02:14:25;8.68;;;7.68;;
11685;SDS011;5899;51.282;6.094;2023-03-01T02:17:34;9.25;;;7.72;;
11685;SDS011;5899;51.282;6.094;2023-03-01T02:20:07;8.43;;;7.28;;
11685;SDS011;5899;51.282;6.094;2023-03-01T02:23:12;8.30;;;7.40;;
11685;SDS011;5899;51.282;6.094;2023-03-01T02:34:18;9.05;;;7.38;;
11685;SDS011;5899;51.282;6.094;2023-03-01T02:36:56;8.77;;;7.88;;
11685;SDS011;5899;51.282;6.094;2023-03-01T02:39:31;8.18;;;7.30;;
11685;SDS011;5899;51.282;6.094;2023-03-01T02:42:20;9.48;;;7.50;;
11685;SDS011;5899;51.282;6.094;2023-03-01T02:45:28;8.27;;;7.37;;
11685;SDS011;5899;51.282;6.094;2023-03-01T02:47:49;9.60;;;7.78;;
11685;SDS011;5899;51.282;6.094;2023-03-01T03:04:42;9.10;;;7.43;;
11685;SDS011;5899;51.282;6.094;2023-03-01T03:07:30;9.57;;;7.70;;
11685;SDS011;5899;51.282;6.094;2023-03-01T03:10:21;11.00;;;7.88;;
11685;SDS011;5899;51.282;6.094;2023-03-01T03:13:26;8.75;;;7.85;;
11685;SDS011;5899;51.282;6.094;2023-03-01T03:16:21;11.18;;;8.18;;
11685;SDS011;5899;51.282;6.094;2023-03-01T03:24:16;9.35;;;7.22;;
11685;SDS011;5899;51.282;6.094;2023-03-01T03:26:50;9.60;;;7.15;;
11685;SDS011;5899;51.282;6.094;2023-03-01T03:29:53;9.50;;;8.15;;
11685;SDS011;5899;51.282;6.094;2023-03-01T03:32:44;9.20;;;7.33;;
11685;SDS011;5899;51.282;6.094;2023-03-01T03:35:20;9.07;;;7.97;;
11685;SDS011;5899;51.282;6.094;2023-03-01T03:37:57;9.95;;;7.80;;
11685;SDS011;5899;51.282;6.094;2023-03-01T03:40:45;8.35;;;7.03;;
11685;SDS011;5899;51.282;6.094;2023-03-01T03:43:17;9.07;;;7.73;;
11685;SDS011;5899;51.282;6.094;2023-03-01T03:45:44;10.38;;;8.82;;
11685;SDS011;5899;51.282;6.094;2023-03-01T03:48:32;11.90;;;8.97;;
11685;SDS011;5899;51.282;6.094;2023-03-01T03:51:01;9.45;;;8.43;;
11685;SDS011;5899;51.282;6.094;2023-03-01T03:55:14;10.82;;;9.07;;
11685;SDS011;5899;51.282;6.094;2023-03-01T03:56:30;10.20;;;8.38;;
11685;SDS011;5899;51.282;6.094;2023-03-01T03:59:41;10.93;;;9.00;;
11685;SDS011;5899;51.282;6.094;2023-03-01T04:02:30;10.52;;;8.75;;
11685;SDS011;5899;51.282;6.094;2023-03-01T04:04:53;11.73;;;8.82;;
11685;SDS011;5899;51.282;6.094;2023-03-01T04:07:24;9.77;;;8.77;;
11685;SDS011;5899;51.282;6.094;2023-03-01T04:09:51;11.70;;;9.30;;
11685;SDS011;5899;51.282;6.094;2023-03-01T04:26:36;10.88;;;9.25;;
11685;SDS011;5899;51.282;6.094;2023-03-01T04:29:09;11.05;;;9.30;;
11685;SDS011;5899;51.282;6.094;2023-03-01T04:34:52;11.63;;;8.77;;
11685;SDS011;5899;51.282;6.094;2023-03-01T04:40:42;9.48;;;8.50;;
11685;SDS011;5899;51.282;6.094;2023-03-01T04:43:26;10.13;;;8.93;;
11685;SDS011;5899;51.282;6.094;2023-03-01T04:45:59;10.13;;;8.38;;
11685;SDS011;5899;51.282;6.094;2023-03-01T04:48:39;9.65;;;8.57;;
11685;SDS011;5899;51.282;6.094;2023-03-01T04:51:13;11.82;;;9.18;;
11685;SDS011;5899;51.282;6.094;2023-03-01T04:53:49;10.18;;;8.48;;
11685;SDS011;5899;51.282;6.094;2023-03-01T04:56:31;9.53;;;8.53;;
11685;SDS011;5899;51.282;6.094;2023-03-01T05:04:26;10.45;;;8.80;;
11685;SDS011;5899;51.282;6.094;2023-03-01T05:07:02;11.02;;;9.13;;
11685;SDS011;5899;51.282;6.094;2023-03-01T05:09:33;12.45;;;8.98;;
11685;SDS011;5899;51.282;6.094;2023-03-01T05:12:08;11.38;;;8.80;;
11685;SDS011;5899;51.282;6.094;2023-03-01T05:14:41;9.60;;;8.60;;
11685;SDS011;5899;51.282;6.094;2023-03-01T05:17:19;11.52;;;9.35;;
11685;SDS011;5899;51.282;6.094;2023-03-01T05:19:50;11.67;;;9.13;;
11685;SDS011;5899;51.282;6.094;2023-03-01T05:22:30;10.10;;;9.07;;
11685;SDS011;5899;51.282;6.094;2023-03-01T05:25:20;10.68;;;9.40;;
11685;SDS011;5899;51.282;6.094;2023-03-01T05:28:11;10.50;;;9.40;;
11685;SDS011;5899;51.282;6.094;2023-03-01T05:30:48;11.48;;;9.68;;
11685;SDS011;5899;51.282;6.094;2023-03-01T05:33:20;10.27;;;8.97;;
11685;SDS011;5899;51.282;6.094;2023-03-01T05:35:53;11.23;;;9.48;;
11685;SDS011;5899;51.282;6.094;2023-03-01T05:38:24;10.88;;;9.48;;
11685;SDS011;5899;51.282;6.094;2023-03-01T05:41:23;10.57;;;9.48;;
11685;SDS011;5899;51.282;6.094;2023-03-01T05:43:54;12.20;;;9.40;;
11685;SDS011;5899;51.282;6.094;2023-03-01T05:47:14;13.43;;;9.80;;
11685;SDS011;5899;51.282;6.094;2023-03-01T05:49:24;10.43;;;9.13;;
11685;SDS011;5899;51.282;6.094;2023-03-01T05:54:57;9.77;;;8.45;;
11685;SDS011;5899;51.282;6.094;2023-03-01T05:57:41;11.00;;;8.27;;
11685;SDS011;5899;51.282;6.094;2023-03-01T06:00:10;11.82;;;9.05;;
11685;SDS011;5899;51.282;6.094;2023-03-01T06:02:46;10.30;;;8.93;;
11685;SDS011;5899;51.282;6.094;2023-03-01T06:09:39;10.43;;;8.18;;
11685;SDS011;5899;51.282;6.094;2023-03-01T06:13:50;11.00;;;8.13;;
11685;SDS011;5899;51.282;6.094;2023-03-01T06:19:19;10.50;;;8.65;;
11685;SDS011;5899;51.282;6.094;2023-03-01T06:22:00;9.88;;;8.20;;
11685;SDS011;5899;51.282;6.094;2023-03-01T06:25:01;10.98;;;8.50;;
11685;SDS011;5899;51.282;6.094;2023-03-01T06:29:05;12.07;;;8.68;;
11685;SDS011;5899;51.282;6.094;2023-03-01T06:30:20;10.93;;;8.37;;
11685;SDS011;5899;51.282;6.094;2023-03-01T06:32:50;9.48;;;8.38;;
11685;SDS011;5899;51.282;6.094;2023-03-01T06:35:17;9.70;;;7.95;;
11685;SDS011;5899;51.282;6.094;2023-03-01T06:37:46;11.98;;;8.85;;
11685;SDS011;5899;51.282;6.094;2023-03-01T06:40:13;8.77;;;7.72;;
11685;SDS011;5899;51.282;6.094;2023-03-01T06:42:42;10.00;;;8.43;;
11685;SDS011;5899;51.282;6.094;2023-03-01T06:45:13;9.75;;;8.02;;
11685;SDS011;5899;51.282;6.094;2023-03-01T06:47:51;12.02;;;8.88;;
11685;SDS011;5899;51.282;6.094;2023-03-01T06:50:37;10.75;;;8.00;;
11685;SDS011;5899;51.282;6.094;2023-03-01T06:53:06;9.48;;;8.02;;
11685;SDS011;5899;51.282;6.094;2023-03-01T06:55:35;11.02;;;8.90;;
11685;SDS011;5899;51.282;6.094;2023-03-01T06:58:22;10.55;;;8.30;;
11685;SDS011;5899;51.282;6.094;2023-03-01T07:00:51;8.70;;;7.80;;
11685;SDS011;5899;51.282;6.094;2023-03-01T07:06:09;10.67;;;8.40;;
11685;SDS011;5899;51.282;6.094;2023-03-01T07:08:51;11.95;;;8.65;;
11685;SDS011;5899;51.282;6.094;2023-03-01T07:11:19;10.80;;;8.65;;
11685;SDS011;5899;51.282;6.094;2023-03-01T07:13:52;11.43;;;8.70;;
11685;SDS011;5899;51.282;6.094;2023-03-01T07:16:20;10.73;;;8.60;;
11685;SDS011;5899;51.282;6.094;2023-03-01T07:18:55;10.50;;;8.30;;
11685;SDS011;5899;51.282;6.094;2023-03-01T07:21:33;9.47;;;7.63;;
11685;SDS011;5899;51.282;6.094;2023-03-01T07:24:07;11.15;;;7.93;;
11685;SDS011;5899;51.282;6.094;2023-03-01T07:26:48;11.20;;;8.07;;
11685;SDS011;5899;51.282;6.094;2023-03-01T07:29:23;11.90;;;8.20;;
11685;SDS011;5899;51.282;6.094;2023-03-01T07:31:55;11.18;;;7.55;;
11685;SDS011;5899;51.282;6.094;2023-03-01T07:34:21;12.75;;;8.57;;
11685;SDS011;5899;51.282;6.094;2023-03-01T07:37:07;11.77;;;8.48;;
11685;SDS011;5899;51.282;6.094;2023-03-01T07:39:47;10.13;;;7.87;;
11685;SDS011;5899;51.282;6.094;2023-03-01T07:42:16;11.23;;;8.10;;
11685;SDS011;5899;51.282;6.094;2023-03-01T07:44:47;10.95;;;8.40;;
11685;SDS011;5899;51.282;6.094;2023-03-01T07:47:33;9.23;;;8.23;;
11685;SDS011;5899;51.282;6.094;2023-03-01T07:50:17;10.65;;;8.35;;
11685;SDS011;5899;51.282;6.094;2023-03-01T07:52:49;9.15;;;8.02;;
11685;SDS011;5899;51.282;6.094;2023-03-01T07:55:21;11.75;;;8.07;;
11685;SDS011;5899;51.282;6.094;2023-03-01T07:57:56;10.73;;;7.65;;
11685;SDS011;5899;51.282;6.094;2023-03-01T08:00:29;9.80;;;8.10;;
11685;SDS011;5899;51.282;6.094;2023-03-01T08:03:04;10.38;;;7.70;;
11685;SDS011;5899;51.282;6.094;2023-03-01T08:05:43;10.27;;;8.25;;
11685;SDS011;5899;51.282;6.094;2023-03-01T08:08:18;8.70;;;7.80;;
11685;SDS011;5899;51.282;6.094;2023-03-01T08:10:46;9.95;;;7.75;;
11685;SDS011;5899;51.282;6.094;2023-03-01T08:13:14;8.35;;;7.40;;
11685;SDS011;5899;51.282;6.094;2023-03-01T08:15:59;9.88;;;7.53;;
11685;SDS011;5899;51.282;6.094;2023-03-01T08:18:36;10.45;;;8.45;;
11685;SDS011;5899;51.282;6.094;2023-03-01T08:21:09;9.10;;;7.57;;
11685;SDS011;5899;51.282;6.094;2023-03-01T08:23:45;9.00;;;7.43;;
11685;SDS011;5899;51.282;6.094;2023-03-01T08:26:20;10.00;;;7.97;;
11685;SDS011;5899;51.282;6.094;2023-03-01T08:28:53;11.77;;;7.60;;
11685;SDS011;5899;51.282;6.094;2023-03-01T08:31:28;8.75;;;7.35;;
11685;SDS011;5899;51.282;6.094;2023-03-01T08:34:05;11.90;;;7.57;;
11685;SDS011;5899;51.282;6.094;2023-03-01T08:37:08;8.57;;;7.45;;
11685;SDS011;5899;51.282;6.094;2023-03-01T08:39:48;9.05;;;7.18;;
11685;SDS011;5899;51.282;6.094;2023-03-01T08:42:28;10.35;;;7.50;;
11685;SDS011;5899;51.282;6.094;2023-03-01T08:44:56;9.60;;;8.07;;
11685;SDS011;5899;51.282;6.094;2023-03-01T08:47:33;9.20;;;7.63;;
11685;SDS011;5899;51.282;6.094;2023-03-01T08:49:59;8.70;;;6.90;;
11685;SDS011;5899;51.282;6.094;2023-03-01T08:52:26;9.30;;;6.95;;
11685;SDS011;5899;51.282;6.094;2023-03-01T08:54:59;10.30;;;7.38;;
11685;SDS011;5899;51.282;6.094;2023-03-01T08:57:28;9.93;;;7.05;;
11685;SDS011;5899;51.282;6.094;2023-03-01T08:59:56;8.25;;;6.82;;
11685;SDS011;5899;51.282;6.094;2023-03-01T09:02:34;10.60;;;7.13;;
11685;SDS011;5899;51.282;6.094;2023-03-01T09:05:03;9.63;;;7.53;;
11685;SDS011;5899;51.282;6.094;2023-03-01T09:07:29;9.38;;;7.72;;
11685;SDS011;5899;51.282;6.094;2023-03-01T09:10:16;9.30;;;7.15;;
11685;SDS011;5899;51.282;6.094;2023-03-01T09:12:53;8.55;;;7.60;;
11685;SDS011;5899;51.282;6.094;2023-03-01T09:15:30;9.82;;;7.07;;
11685;SDS011;5899;51.282;6.094;2023-03-01T09:18:12;10.10;;;7.78;;
11685;SDS011;5899;51.282;6.094;2023-03-01T09:20:40;9.98;;;7.68;;
11685;SDS011;5899;51.282;6.094;2023-03-01T09:23:14;9.35;;;7.72;;
11685;SDS011;5899;51.282;6.094;2023-03-01T09:25:46;11.40;;;8.20;;
11685;SDS011;5899;51.282;6.094;2023-03-01T09:28:14;10.65;;;7.53;;
11685;SDS011;5899;51.282;6.094;2023-03-01T09:30:51;8.38;;;7.45;;
11685;SDS011;5899;51.282;6.094;2023-03-01T09:33:53;11.30;;;7.75;;
11685;SDS011;5899;51.282;6.094;2023-03-01T09:36:16;9.85;;;7.30;;
11685;SDS011;5899;51.282;6.094;2023-03-01T09:38:46;8.43;;;7.57;;
11685;SDS011;5899;51.282;6.094;2023-03-01T09:41:21;10.88;;;8.13;;
11685;SDS011;5899;51.282;6.094;2023-03-01T09:44:27;10.75;;;7.78;;
11685;SDS011;5899;51.282;6.094;2023-03-01T09:47:15;9.30;;;7.70;;
11685;SDS011;5899;51.282;6.094;2023-03-01T09:49:42;10.32;;;7.53;;
11685;SDS011;5899;51.282;6.094;2023-03-01T09:52:19;8.65;;;7.28;;
11685;SDS011;5899;51.282;6.094;2023-03-01T09:54:52;9.50;;;7.30;;
11685;SDS011;5899;51.282;6.094;2023-03-01T09:57:24;7.90;;;7.10;;
11685;SDS011;5899;51.282;6.094;2023-03-01T09:59:58;8.10;;;7.10;;
11685;SDS011;5899;51.282;6.094;2023-03-01T10:02:30;9.90;;;7.70;;
11685;SDS011;5899;51.282;6.094;2023-03-01T10:05:00;9.88;;;7.00;;
11685;SDS011;5899;51.282;6.094;2023-03-01T10:07:32;11.75;;;7.97;;
11685;SDS011;5899;51.282;6.094;2023-03-01T10:10:04;8.30;;;7.40;;
11685;SDS011;5899;51.282;6.094;2023-03-01T10:12:34;10.23;;;7.43;;
11685;SDS011;5899;51.282;6.094;2023-03-01T10:15:04;9.90;;;7.97;;
11685;SDS011;5899;51.282;6.094;2023-03-01T10:17:33;8.90;;;7.50;;
11685;SDS011;5899;51.282;6.094;2023-03-01T10:20:10;8.43;;;7.30;;
11685;SDS011;5899;51.282;6.094;2023-03-01T10:22:39;8.82;;;7.63;;
11685;SDS011;5899;51.282;6.094;2023-03-01T10:25:06;10.32;;;8.30;;
11685;SDS011;5899;51.282;6.094;2023-03-01T10:27:37;8.50;;;7.35;;
11685;SDS011;5899;51.282;6.094;2023-03-01T10:30:09;8.73;;;7.32;;
11685;SDS011;5899;51.282;6.094;2023-03-01T10:32:41;8.50;;;7.37;;
11685;SDS011;5899;51.282;6.094;2023-03-01T10:35:15;11.00;;;7.82;;
11685;SDS011;5899;51.282;6.094;2023-03-01T10:37:46;10.43;;;7.95;;
11685;SDS011;5899;51.282;6.094;2023-03-01T10:40:22;10.30;;;7.18;;
11685;SDS011;5899;51.282;6.094;2023-03-01T10:42:50;9.63;;;7.65;;
11685;SDS011;5899;51.282;6.094;2023-03-01T10:45:22;11.15;;;8.38;;
11685;SDS011;5899;51.282;6.094;2023-03-01T10:48:01;10.32;;;8.02;;
11685;SDS011;5899;51.282;6.094;2023-03-01T10:50:29;8.50;;;7.40;;
11685;SDS011;5899;51.282;6.094;2023-03-01T10:52:56;10.63;;;8.10;;
11685;SDS011;5899;51.282;6.094;2023-03-01T10:55:24;8.57;;;7.55;;
11685;SDS011;5899;51.282;6.094;2023-03-01T10:57:54;11.40;;;7.37;;
11685;SDS011;5899;51.282;6.094;2023-03-01T11:00:32;10.38;;;7.70;;
11685;SDS011;5899;51.282;6.094;2023-03-01T11:03:03;9.77;;;7.85;;
11685;SDS011;5899;51.282;6.094;2023-03-01T11:05:35;10.93;;;8.32;;
11685;SDS011;5899;51.282;6.094;2023-03-01T11:08:03;9.38;;;7.72;;
11685;SDS011;5899;51.282;6.094;2023-03-01T11:10:31;9.15;;;7.45;;
11685;SDS011;5899;51.282;6.094;2023-03-01T11:13:09;10.57;;;7.67;;
11685;SDS011;5899;51.282;6.094;2023-03-01T11:15:40;10.93;;;7.40;;
11685;SDS011;5899;51.282;6.094;2023-03-01T11:18:15;8.75;;;7.28;;
11685;SDS011;5899;51.282;6.094;2023-03-01T11:20:43;8.68;;;7.53;;
11685;SDS011;5899;51.282;6.094;2023-03-01T11:23:10;9.93;;;7.78;;
11685;SDS011;5899;51.282;6.094;2023-03-01T11:25:41;8.27;;;7.35;;
11685;SDS011;5899;51.282;6.094;2023-03-01T11:28:12;8.50;;;7.30;;
11685;SDS011;5899;51.282;6.094;2023-03-01T11:30:40;10.65;;;8.10;;
11685;SDS011;5899;51.282;6.094;2023-03-01T11:33:13;10.63;;;8.48;;
11685;SDS011;5899;51.282;6.094;2023-03-01T11:35:42;8.23;;;7.00;;
11685;SDS011;5899;51.282;6.094;2023-03-01T11:38:15;9.32;;;7.65;;
11685;SDS011;5899;51.282;6.094;2023-03-01T11:40:44;9.27;;;7.65;;
11685;SDS011;5899;51.282;6.094;2023-03-01T11:43:14;12.35;;;7.57;;
11685;SDS011;5899;51.282;6.094;2023-03-01T11:51:08;11.07;;;8.30;;
11685;SDS011;5899;51.282;6.094;2023-03-01T11:53:45;10.10;;;7.35;;
11685;SDS011;5899;51.282;6.094;2023-03-01T11:56:17;9.45;;;8.05;;
11685;SDS011;5899;51.282;6.094;2023-03-01T11:58:52;8.40;;;7.53;;
11685;SDS011;5899;51.282;6.094;2023-03-01T12:01:25;9.60;;;7.47;;
11685;SDS011;5899;51.282;6.094;2023-03-01T12:04:09;9.68;;;7.65;;
11685;SDS011;5899;51.282;6.094;2023-03-01T12:06:47;9.45;;;7.53;;
11685;SDS011;5899;51.282;6.094;2023-03-01T12:09:29;9.00;;;7.45;;
11685;SDS011;5899;51.282;6.094;2023-03-01T12:12:02;8.80;;;7.30;;
11685;SDS011;5899;51.282;6.094;2023-03-01T12:14:48;7.93;;;6.80;;
11685;SDS011;5899;51.282;6.094;2023-03-01T12:17:22;8.53;;;7.20;;
11685;SDS011;5899;51.282;6.094;2023-03-01T12:19:58;9.38;;;6.97;;
11685;SDS011;5899;51.282;6.094;2023-03-01T12:22:29;9.90;;;7.32;;
11685;SDS011;5899;51.282;6.094;2023-03-01T12:27:47;10.30;;;7.28;;
11685;SDS011;5899;51.282;6.094;2023-03-01T12:30:19;10.43;;;7.07;;
11685;SDS011;5899;51.282;6.094;2023-03-01T12:32:52;8.75;;;6.65;;
11685;SDS011;5899;51.282;6.094;2023-03-01T12:35:31;6.70;;;6.00;;
11685;SDS011;5899;51.282;6.094;2023-03-01T12:38:02;6.72;;;5.80;;
11685;SDS011;5899;51.282;6.094;2023-03-01T12:43:33;8.70;;;6.30;;
11685;SDS011;5899;51.282;6.094;2023-03-01T12:46:07;8.93;;;5.80;;
11685;SDS011;5899;51.282;6.094;2023-03-01T12:48:39;8.52;;;6.18;;
11685;SDS011;5899;51.282;6.094;2023-03-01T12:51:07;6.68;;;5.82;;
11685;SDS011;5899;51.282;6.094;2023-03-01T12:53:36;7.93;;;5.90;;
11685;SDS011;5899;51.282;6.094;2023-03-01T12:56:04;8.90;;;6.05;;
11685;SDS011;5899;51.282;6.094;2023-03-01T12:58:32;8.90;;;6.30;;
11685;SDS011;5899;51.282;6.094;2023-03-01T13:01:12;7.10;;;5.78;;
11685;SDS011;5899;51.282;6.094;2023-03-01T13:06:39;8.48;;;6.13;;
11685;SDS011;5899;51.282;6.094;2023-03-01T13:09:10;8.25;;;6.20;;
11685;SDS011;5899;51.282;6.094;2023-03-01T13:11:40;8.57;;;6.28;;
11685;SDS011;5899;51.282;6.094;2023-03-01T13:16:54;6.28;;;5.68;;
11685;SDS011;5899;51.282;6.094;2023-03-01T13:19:21;8.48;;;6.03;;
11685;SDS011;5899;51.282;6.094;2023-03-01T13:21:50;7.70;;;5.75;;
11685;SDS011;5899;51.282;6.094;2023-03-01T13:24:26;7.65;;;5.72;;
11685;SDS011;5899;51.282;6.094;2023-03-01T13:29:43;7.18;;;5.00;;
11685;SDS011;5899;51.282;6.094;2023-03-01T13:32:20;6.00;;;5.40;;
11685;SDS011;5899;51.282;6.094;2023-03-01T13:34:47;9.70;;;5.82;;
11685;SDS011;5899;51.282;6.094;2023-03-01T13:37:21;5.73;;;5.13;;
11685;SDS011;5899;51.282;6.094;2023-03-01T13:39:48;5.35;;;4.85;;
11685;SDS011;5899;51.282;6.094;2023-03-01T13:42:30;6.50;;;4.95;;
11685;SDS011;5899;51.282;6.094;2023-03-01T13:44:57;6.43;;;4.90;;
11685;SDS011;5899;51.282;6.094;2023-03-01T13:47:25;7.35;;;5.30;;
11685;SDS011;5899;51.282;6.094;2023-03-01T13:49:55;7.07;;;5.03;;
11685;SDS011;5899;51.282;6.094;2023-03-01T13:52:28;6.07;;;4.78;;
11685;SDS011;5899;51.282;6.094;2023-03-01T13:54:57;5.75;;;4.93;;
11685;SDS011;5899;51.282;6.094;2023-03-01T13:57:26;6.60;;;4.60;;
11685;SDS011;5899;51.282;6.094;2023-03-01T13:59:54;6.75;;;4.75;;
11685;SDS011;5899;51.282;6.094;2023-03-01T14:02:20;6.57;;;4.40;;
11685;SDS011;5899;51.282;6.094;2023-03-01T14:04:57;5.45;;;4.72;;
11685;SDS011;5899;51.282;6.094;2023-03-01T14:07:24;6.03;;;5.07;;
11685;SDS011;5899;51.282;6.094;2023-03-01T14:09:51;5.90;;;5.07;;
11685;SDS011;5899;51.282;6.094;2023-03-01T14:12:34;5.50;;;4.43;;
11685;SDS011;5899;51.282;6.094;2023-03-01T14:15:06;6.00;;;4.80;;
11685;SDS011;5899;51.282;6.094;2023-03-01T14:17:39;7.07;;;4.60;;
11685;SDS011;5899;51.282;6.094;2023-03-01T14:20:14;6.60;;;5.07;;
11685;SDS011;5899;51.282;6.094;2023-03-01T14:22:42;6.50;;;4.80;;
11685;SDS011;5899;51.282;6.094;2023-03-01T14:25:22;6.15;;;4.75;;
11685;SDS011;5899;51.282;6.094;2023-03-01T14:27:56;6.18;;;4.93;;
11685;SDS011;5899;51.282;6.094;2023-03-01T14:30:24;5.88;;;4.45;;
11685;SDS011;5899;51.282;6.094;2023-03-01T14:32:55;7.10;;;5.07;;
11685;SDS011;5899;51.282;6.094;2023-03-01T14:35:24;6.18;;;5.30;;
11685;SDS011;5899;51.282;6.094;2023-03-01T14:37:51;7.70;;;5.03;;
11685;SDS011;5899;51.282;6.094;2023-03-01T14:40:22;6.68;;;4.95;;
11685;SDS011;5899;51.282;6.094;2023-03-01T14:42:49;6.70;;;5.22;;
11685;SDS011;5899;51.282;6.094;2023-03-01T14:45:16;6.70;;;4.97;;
11685;SDS011;5899;51.282;6.094;2023-03-01T14:47:43;5.93;;;5.25;;
11685;SDS011;5899;51.282;6.094;2023-03-01T14:50:15;6.47;;;5.10;;
11685;SDS011;5899;51.282;6.094;2023-03-01T14:52:46;7.35;;;5.75;;
11685;SDS011;5899;51.282;6.094;2023-03-01T14:55:15;7.18;;;5.18;;
11685;SDS011;5899;51.282;6.094;2023-03-01T14:57:42;8.15;;;5.22;;
11685;SDS011;5899;51.282;6.094;2023-03-01T15:00:10;6.35;;;4.97;;
11685;SDS011;5899;51.282;6.094;2023-03-01T15:02:39;8.02;;;5.32;;
11685;SDS011;5899;51.282;6.094;2023-03-01T15:05:08;6.53;;;4.97;;
11685;SDS011;5899;51.282;6.094;2023-03-01T15:07:36;7.77;;;5.27;;
11685;SDS011;5899;51.282;6.094;2023-03-01T15:10:07;5.82;;;4.93;;
11685;SDS011;5899;51.282;6.094;2023-03-01T15:12:41;6.75;;;5.22;;
11685;SDS011;5899;51.282;6.094;2023-03-01T15:15:30;6.35;;;5.20;;
11685;SDS011;5899;51.282;6.094;2023-03-01T15:17:58;5.88;;;5.22;;
11685;SDS011;5899;51.282;6.094;2023-03-01T15:20:25;6.70;;;5.80;;
11685;SDS011;5899;51.282;6.094;2023-03-01T15:22:52;8.05;;;5.80;;
11685;SDS011;5899;51.282;6.094;2023-03-01T15:25:21;9.52;;;6.03;;
11685;SDS011;5899;51.282;6.094;2023-03-01T15:27:49;5.80;;;5.20;;
11685;SDS011;5899;51.282;6.094;2023-03-01T15:30:17;6.88;;;5.25;;
11685;SDS011;5899;51.282;6.094;2023-03-01T15:32:44;6.60;;;5.40;;
11685;SDS011;5899;51.282;6.094;2023-03-01T15:37:56;6.47;;;5.68;;
11685;SDS011;5899;51.282;6.094;2023-03-01T15:40:27;7.03;;;5.90;;
11685;SDS011;5899;51.282;6.094;2023-03-01T15:42:57;7.82;;;5.82;;
11685;SDS011;5899;51.282;6.094;2023-03-01T15:45:24;6.72;;;5.60;;
11685;SDS011;5899;51.282;6.094;2023-03-01T15:47:52;6.03;;;4.97;;
11685;SDS011;5899;51.282;6.094;2023-03-01T15:50:20;8.50;;;5.60;;
11685;SDS011;5899;51.282;6.094;2023-03-01T15:52:47;9.52;;;5.63;;
11685;SDS011;5899;51.282;6.094;2023-03-01T15:55:16;6.95;;;5.60;;
11685;SDS011;5899;51.282;6.094;2023-03-01T15:57:49;6.80;;;5.50;;
11685;SDS011;5899;51.282;6.094;2023-03-01T16:00:19;8.73;;;5.60;;
11685;SDS011;5899;51.282;6.094;2023-03-01T16:02:46;7.47;;;5.53;;
11685;SDS011;5899;51.282;6.094;2023-03-01T16:05:15;6.03;;;5.25;;
11685;SDS011;5899;51.282;6.094;2023-03-01T16:07:43;7.60;;;5.50;;
11685;SDS011;5899;51.282;6.094;2023-03-01T16:10:10;6.80;;;5.60;;
11685;SDS011;5899;51.282;6.094;2023-03-01T16:12:36;7.32;;;5.78;;
11685;SDS011;5899;51.282;6.094;2023-03-01T16:15:07;6.65;;;5.53;;
11685;SDS011;5899;51.282;6.094;2023-03-01T16:17:38;7.45;;;6.03;;
11685;SDS011;5899;51.282;6.094;2023-03-01T16:20:04;7.85;;;5.68;;
11685;SDS011;5899;51.282;6.094;2023-03-01T16:22:31;9.65;;;6.30;;
11685;SDS011;5899;51.282;6.094;2023-03-01T16:24:57;6.13;;;5.45;;
11685;SDS011;5899;51.282;6.094;2023-03-01T16:27:24;6.55;;;5.45;;
11685;SDS011;5899;51.282;6.094;2023-03-01T16:29:50;8.00;;;5.33;;
11685;SDS011;5899;51.282;6.094;2023-03-01T16:32:20;9.32;;;6.28;;
11685;SDS011;5899;51.282;6.094;2023-03-01T16:34:46;6.70;;;5.57;;
11685;SDS011;5899;51.282;6.094;2023-03-01T16:37:14;9.80;;;6.03;;
11685;SDS011;5899;51.282;6.094;2023-03-01T16:39:41;7.95;;;5.60;;
11685;SDS011;5899;51.282;6.094;2023-03-01T16:42:07;6.80;;;5.30;;
11685;SDS011;5899;51.282;6.094;2023-03-01T16:44:33;7.72;;;5.95;;
11685;SDS011;5899;51.282;6.094;2023-03-01T16:47:00;7.15;;;5.65;;
11685;SDS011;5899;51.282;6.094;2023-03-01T16:49:28;7.33;;;5.97;;
11685;SDS011;5899;51.282;6.094;2023-03-01T16:51:54;9.38;;;5.88;;
11685;SDS011;5899;51.282;6.094;2023-03-01T16:54:21;7.55;;;5.93;;
11685;SDS011;5899;51.282;6.094;2023-03-01T16:56:47;9.98;;;7.07;;
11685;SDS011;5899;51.282;6.094;2023-03-01T16:59:14;8.48;;;6.25;;
11685;SDS011;5899;51.282;6.094;2023-03-01T17:01:40;7.93;;;5.90;;
11685;SDS011;5899;51.282;6.094;2023-03-01T17:04:09;8.20;;;5.80;;
11685;SDS011;5899;51.282;6.094;2023-03-01T17:06:37;11.27;;;6.23;;
11685;SDS011;5899;51.282;6.094;2023-03-01T17:09:04;8.23;;;6.38;;
11685;SDS011;5899;51.282;6.094;2023-03-01T17:11:30;11.18;;;6.82;;
11685;SDS011;5899;51.282;6.094;2023-03-01T17:13:57;8.03;;;5.90;;
11685;SDS011;5899;51.282;6.094;2023-03-01T17:16:23;9.02;;;6.35;;
11685;SDS011;5899;51.282;6.094;2023-03-01T17:18:51;9.48;;;6.53;;
11685;SDS011;5899;51.282;6.094;2023-03-01T17:21:18;9.40;;;6.03;;
11685;SDS011;5899;51.282;6.094;2023-03-01T17:23:49;8.70;;;6.03;;
11685;SDS011;5899;51.282;6.094;2023-03-01T17:26:16;7.13;;;5.97;;
11685;SDS011;5899;51.282;6.094;2023-03-01T17:28:43;7.70;;;5.90;;
11685;SDS011;5899;51.282;6.094;2023-03-01T17:31:15;11.17;;;7.17;;
11685;SDS011;5899;51.282;6.094;2023-03-01T17:33:42;7.78;;;6.80;;
11685;SDS011;5899;51.282;6.094;2023-03-01T17:36:08;12.15;;;7.25;;
11685;SDS011;5899;51.282;6.094;2023-03-01T17:38:35;10.05;;;7.18;;
11685;SDS011;5899;51.282;6.094;2023-03-01T17:41:03;9.60;;;7.13;;
11685;SDS011;5899;51.282;6.094;2023-03-01T17:43:30;12.13;;;7.28;;
11685;SDS011;5899;51.282;6.094;2023-03-01T17:45:58;11.68;;;7.45;;